createdAt,value
2023-05-19T03:45:24.715Z,5.40
2023-05-19T03:48:28.591Z,5.32
2023-05-19T03:51:38.542Z,3.80
2023-05-19T03:54:42.773Z,6.75
2023-05-19T03:57:45.222Z,3.35
2023-05-19T04:00:47.973Z,4.67
2023-05-19T04:03:50.801Z,3.60
2023-05-19T04:06:53.302Z,3.77
2023-05-19T04:09:55.988Z,4.03
2023-05-19T04:12:58.448Z,3.60
2023-05-19T04:16:01.966Z,4.45
2023-05-19T04:19:04.548Z,4.03
2023-05-19T04:22:07.343Z,4.03
2023-05-19T04:25:09.968Z,3.95
2023-05-19T04:28:13.734Z,3.75
2023-05-19T04:31:16.321Z,3.55
2023-05-19T04:34:19.894Z,3.83
2023-05-19T04:37:22.754Z,3.67
2023-05-19T04:40:25.758Z,3.67
2023-05-19T04:43:28.374Z,4.30
2023-05-19T04:46:31.187Z,3.90
2023-05-19T04:49:38.753Z,4.25
2023-05-19T04:52:47.670Z,3.85
2023-05-19T04:55:50.300Z,4.25
2023-05-19T04:58:53.806Z,3.75
2023-05-19T05:01:57.240Z,4.12
2023-05-19T05:08:03.170Z,5.12
2023-05-19T05:11:06.652Z,5.18
2023-05-19T05:14:09.717Z,5.03
2023-05-19T05:17:13.791Z,5.22
2023-05-19T05:20:19.574Z,4.22
2023-05-19T05:23:22.635Z,4.78
2023-05-19T05:26:29.953Z,4.78
2023-05-19T05:29:32.677Z,4.75
2023-05-19T05:35:41.979Z,5.30
2023-05-19T05:38:45.249Z,5.47
2023-05-19T05:41:48.050Z,4.90
2023-05-19T05:44:50.705Z,4.53
2023-05-19T05:47:53.746Z,6.03
2023-05-19T05:50:57.296Z,5.07
2023-05-19T05:54:01.977Z,6.03
2023-05-19T05:57:06.342Z,5.53
2023-05-19T06:00:15.810Z,5.57
2023-05-19T06:03:18.157Z,5.22
2023-05-19T06:06:21.528Z,5.12
2023-05-19T06:09:24.099Z,4.82
2023-05-19T06:15:30.305Z,5.50
2023-05-19T06:18:34.633Z,4.62
2023-05-19T06:21:37.226Z,4.65
2023-05-19T06:24:40.264Z,5.28
2023-05-19T06:27:44.180Z,4.35
2023-05-19T06:30:47.161Z,5.45
2023-05-19T06:33:49.987Z,6.00
2023-05-19T06:36:52.823Z,4.80
2023-05-19T06:39:55.437Z,4.65
2023-05-19T06:42:58.616Z,4.93
2023-05-19T06:46:03.121Z,5.25
2023-05-19T06:49:06.958Z,5.45
2023-05-19T06:52:10.153Z,5.82
2023-05-19T06:55:12.893Z,4.82
2023-05-19T06:58:16.031Z,6.10
2023-05-19T07:01:19.031Z,5.87
2023-05-19T07:04:22.055Z,5.85
2023-05-19T07:07:25.046Z,4.87
2023-05-19T07:10:28.783Z,4.30
2023-05-19T07:13:32.885Z,4.75
2023-05-19T07:16:35.690Z,6.03
2023-05-19T07:22:40.833Z,5.45
2023-05-19T07:25:43.691Z,5.00
2023-05-19T07:28:46.142Z,4.62
2023-05-19T07:31:54.032Z,4.75
2023-05-19T07:34:56.762Z,3.75
2023-05-19T07:37:59.783Z,4.03
2023-05-19T07:41:03.624Z,4.32
2023-05-19T07:44:07.948Z,3.85
2023-05-19T07:47:10.690Z,4.25
2023-05-19T07:53:16.725Z,4.20
2023-05-19T07:56:20.587Z,3.75
2023-05-19T07:59:24.482Z,3.58
2023-05-19T08:02:27.617Z,3.20
2023-05-19T08:08:36.606Z,3.35
2023-05-19T08:11:39.546Z,3.40
2023-05-19T08:14:42.504Z,2.90
2023-05-19T08:17:45.502Z,3.28
2023-05-19T08:20:48.007Z,3.97
2023-05-19T08:23:51.212Z,3.08
2023-05-19T08:26:53.730Z,3.75
2023-05-19T08:29:57.373Z,3.20
2023-05-19T08:33:02.774Z,3.62
2023-05-19T08:36:06.590Z,4.12
2023-05-19T08:39:09.071Z,3.45
2023-05-19T08:42:12.392Z,3.50
2023-05-19T08:45:15.390Z,4.80
2023-05-19T08:48:19.517Z,3.35
2023-05-19T08:51:39.234Z,3.78
2023-05-19T08:54:51.121Z,4.25
2023-05-19T08:57:56.295Z,3.72
2023-05-19T09:01:01.629Z,4.10
2023-05-19T09:04:05.052Z,4.20
2023-05-19T09:07:09.481Z,3.60
2023-05-19T09:10:16.333Z,5.10
2023-05-19T09:13:21.454Z,3.70
2023-05-19T09:16:27.692Z,4.22
2023-05-19T09:19:31.998Z,4.22
2023-05-19T09:22:37.156Z,4.95
2023-05-19T09:26:07.421Z,4.40
2023-05-19T09:29:17.170Z,4.50
2023-05-19T09:32:27.138Z,3.45
2023-05-19T09:35:30.009Z,5.43
2023-05-19T09:38:33.005Z,4.57
2023-05-19T09:41:35.629Z,3.92
2023-05-19T09:44:38.945Z,4.72
2023-05-19T09:47:42.174Z,4.12
2023-05-19T09:50:46.634Z,4.18
2023-05-19T09:53:49.439Z,4.07
2023-05-19T09:57:04.359Z,3.80
2023-05-19T10:00:13.740Z,4.07
2023-05-19T10:03:17.796Z,4.65
2023-05-19T10:06:22.135Z,4.28
2023-05-19T10:09:25.876Z,4.65
2023-05-19T10:12:29.148Z,4.07
2023-05-19T10:18:40.249Z,3.58
2023-05-19T10:21:42.806Z,3.58
2023-05-19T10:24:45.429Z,3.45
2023-05-19T10:28:01.824Z,3.28
2023-05-19T10:31:08.316Z,4.55
2023-05-19T10:34:33.308Z,3.58
2023-05-19T10:38:00.986Z,4.22
2023-05-19T10:41:03.352Z,3.92
2023-05-19T10:44:28.122Z,3.78
2023-05-19T10:47:32.457Z,4.30
2023-05-19T10:50:38.912Z,4.25
2023-05-19T10:53:51.570Z,4.60
2023-05-19T10:56:56.790Z,4.47
2023-05-19T11:00:11.016Z,3.97
2023-05-19T11:03:15.764Z,4.28
2023-05-19T11:06:29.606Z,3.83
2023-05-19T11:09:40.418Z,4.15
2023-05-19T11:12:45.945Z,4.28
2023-05-19T11:15:49.903Z,4.90
2023-05-19T11:18:55.986Z,3.97
2023-05-19T11:22:12.884Z,4.37
2023-05-19T11:25:38.265Z,4.15
2023-05-19T11:28:42.029Z,3.70
2023-05-19T11:31:45.003Z,3.50
2023-05-19T11:34:50.061Z,3.53
2023-05-19T11:37:54.800Z,3.67
2023-05-19T11:40:57.675Z,3.17
2023-05-19T11:44:00.242Z,3.85
2023-05-19T11:50:05.996Z,3.22
2023-05-19T11:53:13.119Z,4.70
2023-05-19T11:56:15.603Z,3.67
2023-05-19T11:59:18.330Z,4.25
2023-05-19T12:02:26.023Z,3.55
2023-05-19T12:05:29.364Z,3.35
2023-05-19T12:08:31.941Z,3.78
2023-05-19T12:14:37.790Z,3.10
2023-05-19T12:17:41.126Z,3.17
2023-05-19T12:20:44.198Z,3.10
2023-05-19T12:23:47.217Z,3.03
2023-05-19T12:26:50.466Z,3.58
2023-05-19T12:29:55.637Z,3.42
2023-05-19T12:32:58.346Z,4.45
2023-05-19T12:36:01.406Z,2.90
2023-05-19T12:39:06.146Z,2.75
2023-05-19T12:42:10.921Z,2.70
2023-05-19T12:45:13.679Z,3.58
2023-05-19T12:48:17.196Z,3.10
2023-05-19T12:51:20.140Z,3.20
2023-05-19T12:54:23.574Z,2.90
2023-05-19T13:00:32.418Z,3.37
2023-05-19T13:03:41.872Z,3.47
2023-05-19T13:06:44.877Z,2.97
2023-05-19T13:09:48.207Z,3.40
2023-05-19T13:12:51.859Z,3.40
2023-05-19T13:15:54.220Z,3.22
2023-05-19T13:18:57.042Z,4.50
2023-05-19T13:21:59.739Z,3.10
2023-05-19T13:25:06.322Z,3.28
2023-05-19T13:28:09.713Z,3.00
2023-05-19T13:31:12.411Z,2.70
2023-05-19T13:34:14.903Z,3.35
2023-05-19T13:37:17.777Z,3.28
2023-05-19T13:40:20.377Z,2.78
2023-05-19T13:46:36.623Z,3.97
2023-05-19T13:49:47.221Z,3.40
2023-05-19T13:52:49.696Z,2.78
2023-05-19T13:55:55.111Z,2.80
2023-05-19T13:58:57.893Z,3.20
2023-05-19T14:02:00.982Z,2.37
2023-05-19T14:05:04.494Z,3.10
2023-05-19T14:08:06.866Z,3.75
2023-05-19T14:11:09.467Z,2.95
2023-05-19T14:14:11.881Z,3.40
2023-05-19T14:17:14.511Z,3.25
2023-05-19T14:20:17.048Z,2.60
2023-05-19T14:23:21.459Z,2.50
2023-05-19T14:26:23.996Z,2.83
2023-05-19T14:32:30.407Z,3.08
2023-05-19T14:35:33.402Z,2.45
2023-05-19T14:38:36.369Z,2.92
2023-05-19T14:41:39.002Z,2.70
2023-05-19T14:44:41.435Z,2.92
2023-05-19T14:47:44.210Z,3.00
2023-05-19T14:50:48.324Z,3.08
2023-05-19T14:53:51.379Z,2.70
2023-05-19T14:56:53.772Z,3.00
2023-05-19T14:59:58.869Z,2.58
2023-05-19T15:03:01.429Z,3.17
2023-05-19T15:09:15.361Z,3.00
2023-05-19T15:12:19.118Z,3.70
2023-05-19T15:15:21.524Z,2.95
2023-05-19T15:18:24.196Z,3.08
2023-05-19T15:21:26.664Z,2.90
2023-05-19T15:24:29.904Z,3.20
2023-05-19T15:27:32.301Z,2.30
2023-05-19T15:30:37.610Z,2.35
2023-05-19T15:33:40.223Z,2.65
2023-05-19T15:36:45.445Z,2.87
2023-05-19T15:39:47.902Z,2.40
2023-05-19T15:42:50.826Z,2.85
